Saturday, August 23, 2014
07:36 UTC
  |  Log In   |  Register Free
Airport Search:

Indiana County/Jimmy Stewart Fld/ Airport
(KIDI)

Indiana County/Jimmy Stewart Fld/ Airport Diagram
No Airport Diagram Available

FAA data valid effective July 24, 2014 until September 18, 2014 (unless otherwise noted).

 
 
 
 
 
 
 
 
 
 
 
 
 
 

Current Aviation Weather for Indiana County/Jimmy Stewart Fld/ Airport (KIDI)

The most recent METAR observation for KIDI was updated at: 1835 UTC
METAR Summary (Translated METAR)
KIDI
281835Z AUTO 28006G13KT 9SM BKN016 OVC065 19/17 A2975 RMK A01
KJST
(22.7 nm SE from KIDI)
281843Z AUTO 27013G23KT 6SM -RA FEW009 BKN015 OVC021 16/13 A2975 RMK AO2 RAB35 P0001 T01610133
TAF Summary (Translated TAF)
KJST
(22.7 nm SE from KIDI)
230533Z 2306/2406 16004KT 6SM BR SCT015 OVC035 FM230700 14004KT 3SM BR OVC015 FM230900 13003KT 1/2SM FG OVC002 FM231300 13004KT 5SM BR OVC025 FM231600 16006KT P6SM BKN035 FM240500 14005KT 5SM BR BKN025
KLBE
(25.5 nm SW from KIDI)
230535Z 2306/2406 00000KT P6SM BKN018 OVC027 FM230700 VRB03KT 3SM BR SCT005 TEMPO 2310/2314 3SM BR OVC007 FM231400 06005KT P6SM BKN020 FM231700 05005KT P6SM BKN040
  Airport Weather Conditions for KIDI

 Current Weather at IDI
68° F
Fog/Mist
North winds at 0.0 mph
IDI NOAA Radar

Pressure: 30.03 in
Humidity: 100%
Wind: Calm
Dew Point: 68.0°F
Visibility: 4.00 mi


Airport Weather Forecast for KIDI

Translated METAR and TAF for KIDI
Translated METAR for KIDI (0729 UTC 23 August 2014)
found at http://aviationweather.gov/adds/metars/
 
METAR text: KIDI 230715Z AUTO 00000KT 4SM BR OVC009 20/20 A3003 RMK A01
Conditions at: KIDI (INDIANA/STEWART , PA, US) observed 0715 UTC 23 August 2014
Temperature: 20.0°C (68°F)
Dewpoint: 20.0°C (68°F) [RH = 100%]
Pressure (altimeter): 30.03 inches Hg (1017.0 mb)
Winds: calm
Visibility: 4 miles (6 km)
Ceiling: 900 feet AGL
Clouds: overcast cloud deck at 900 feet AGL
Weather: BR  (mist)
Translated TAF for KIDI

There is no translated TAF available for this airport

Find All Airport Services Find A Hotel Find A Rental Car Find A Golf Course Find A Restaurant $100 Hamburger



FBO's on the Field
FBO Company Facility Photos Services Transportation Aviation Fuel Prices: Prices include tax
Catering Weather Repair Courtesy Rental Type 100LL JetA JetA+ MOGAS 8087
 
Indiana County Jimmy Stewart Airport

Currently rated 5 by 1 person
FS:Phillips66
Last Updated: Aug-13
Login to update fuel prices
SS:
Contact Indiana County Jimmy Stewart AirportMore FBO Information
 
Add another FBO Facility Photos Catering Weather Repair Courtesy Rental Type 100LL JetA JetA+ MOGAS 8087
Services Transportation Aviation Fuel Prices: Prices include tax


GlobalAir.com Airport Resource Center model-print
model-print
model-print
model-print